createdAt,value
2018-11-12T00:00:54.216Z,7.92
2018-11-12T00:01:54.151Z,7.91
2018-11-12T00:02:54.085Z,7.95
2018-11-12T00:03:54.020Z,7.99
2018-11-12T00:04:53.956Z,7.95
2018-11-12T00:05:53.891Z,7.91
2018-11-12T00:06:53.873Z,7.91
2018-11-12T00:07:53.760Z,7.95
2018-11-12T00:08:53.696Z,7.83
2018-11-12T00:09:53.638Z,7.88
2018-11-12T00:10:53.567Z,7.76
2018-11-12T00:11:53.503Z,7.88
2018-11-12T00:12:53.438Z,7.87
2018-11-12T00:13:53.375Z,7.88
2018-11-12T00:14:53.309Z,7.77
2018-11-12T00:15:53.244Z,7.80
2018-11-12T00:16:53.177Z,7.88
2018-11-12T00:17:53.113Z,7.74
2018-11-12T00:18:53.048Z,7.87
2018-11-12T00:19:52.983Z,7.84
2018-11-12T00:20:52.920Z,7.88
2018-11-12T00:21:52.885Z,7.91
2018-11-12T00:22:52.831Z,7.99
2018-11-12T00:23:52.730Z,7.87
2018-11-12T00:24:52.658Z,7.94
2018-11-12T00:25:52.604Z,7.92
2018-11-12T00:26:52.547Z,7.91
2018-11-12T00:27:52.462Z,7.76
2018-11-12T00:28:52.399Z,7.74
2018-11-12T00:29:52.341Z,7.74
2018-11-12T00:30:52.269Z,7.69
2018-11-12T00:31:52.217Z,7.60
2018-11-12T00:32:52.151Z,7.64
2018-11-12T00:33:52.076Z,7.60
2018-11-12T00:34:52.005Z,7.64
2018-11-12T00:35:51.944Z,7.60
2018-11-12T00:36:51.894Z,7.58
2018-11-12T00:37:51.816Z,7.68
2018-11-12T00:38:51.749Z,7.55
2018-11-12T00:39:51.684Z,7.52
2018-11-12T00:40:51.622Z,7.50
2018-11-12T00:41:51.558Z,7.46
2018-11-12T00:42:51.502Z,7.54
2018-11-12T00:43:51.422Z,7.47
2018-11-12T00:44:51.437Z,7.52
2018-11-12T00:45:51.294Z,7.60
2018-11-12T00:46:51.229Z,7.64
2018-11-12T00:47:51.168Z,7.62
2018-11-12T00:48:51.100Z,7.64
2018-11-12T00:49:51.075Z,7.52
2018-11-12T00:50:50.973Z,7.52
2018-11-12T00:51:50.900Z,7.46
2018-11-12T00:52:50.850Z,7.47
2018-11-12T00:53:50.776Z,7.47
2018-11-12T00:54:50.707Z,7.50
2018-11-12T00:55:50.651Z,7.43
2018-11-12T00:56:50.580Z,7.40
2018-11-12T00:57:50.515Z,7.34
2018-11-12T00:58:50.450Z,7.40
2018-11-12T00:59:50.382Z,7.42
2018-11-12T01:00:50.320Z,7.31
2018-11-12T01:01:50.251Z,7.31
2018-11-12T01:02:50.188Z,7.33
2018-11-12T01:03:50.153Z,7.29
2018-11-12T01:04:50.061Z,7.33
2018-11-12T01:05:49.999Z,7.34
2018-11-12T01:06:49.933Z,7.26
2018-11-12T01:07:49.869Z,7.28
2018-11-12T01:08:49.800Z,7.18
2018-11-12T01:09:49.734Z,7.18
2018-11-12T01:10:49.667Z,7.11
2018-11-12T01:11:49.602Z,7.10
2018-11-12T01:12:49.556Z,6.96
2018-11-12T01:13:49.471Z,7.01
2018-11-12T01:14:49.413Z,7.01
2018-11-12T01:15:49.345Z,6.92
2018-11-12T01:16:49.277Z,6.92
2018-11-12T01:17:49.216Z,6.97
2018-11-12T01:18:49.153Z,7.00
2018-11-12T01:19:49.094Z,6.92
2018-11-12T01:20:49.015Z,6.92
2018-11-12T01:21:48.951Z,6.86
2018-11-12T01:22:48.893Z,6.81
2018-11-12T01:23:48.822Z,6.88
2018-11-12T01:24:48.758Z,6.82
2018-11-12T01:25:48.694Z,6.88
2018-11-12T01:26:48.626Z,7.01
2018-11-12T01:27:48.562Z,6.97
2018-11-12T01:28:48.497Z,7.03
2018-11-12T01:29:48.432Z,6.99
2018-11-12T01:30:48.375Z,7.03
2018-11-12T01:31:48.306Z,7.10
2018-11-12T01:32:48.237Z,7.10
2018-11-12T01:33:48.199Z,7.13
2018-11-12T01:34:48.103Z,7.19
2018-11-12T01:35:48.043Z,7.24
2018-11-12T01:36:47.991Z,7.16
2018-11-12T01:37:47.910Z,7.19
2018-11-12T01:38:47.849Z,7.10
2018-11-12T01:39:47.779Z,7.15
2018-11-12T01:40:47.715Z,7.07
2018-11-12T01:41:47.659Z,7.04
2018-11-12T01:42:47.583Z,7.08
2018-11-12T01:43:47.521Z,7.01
2018-11-12T01:44:47.453Z,7.03
2018-11-12T01:45:47.388Z,7.18
2018-11-12T01:46:47.323Z,7.18
2018-11-12T01:47:47.267Z,7.22
2018-11-12T01:48:47.192Z,7.31
2018-11-12T01:49:47.127Z,7.34
2018-11-12T01:50:47.060Z,7.33
2018-11-12T01:51:46.996Z,7.31
2018-11-12T01:52:46.934Z,7.26
2018-11-12T01:53:46.868Z,7.26
2018-11-12T01:54:46.802Z,7.31
2018-11-12T01:55:46.736Z,7.31
2018-11-12T01:56:46.670Z,7.39
2018-11-12T01:57:46.604Z,7.39
2018-11-12T01:58:46.539Z,7.43
2018-11-12T01:59:46.490Z,7.37
2018-11-12T02:00:46.407Z,7.39
2018-11-12T02:01:46.396Z,7.43
2018-11-12T02:02:46.296Z,7.31
2018-11-12T02:03:46.234Z,7.28
2018-11-12T02:04:46.156Z,7.26
2018-11-12T02:05:46.082Z,7.22
2018-11-12T02:06:46.017Z,7.18
2018-11-12T02:07:45.954Z,7.19
2018-11-12T02:08:45.945Z,7.19
2018-11-12T02:09:45.822Z,7.22
2018-11-12T02:10:45.778Z,7.26
2018-11-12T02:11:45.695Z,7.24
2018-11-12T02:12:45.625Z,7.24
2018-11-12T02:13:45.571Z,7.24
2018-11-12T02:14:45.566Z,7.19
2018-11-12T02:15:45.436Z,7.15
2018-11-12T02:16:45.365Z,7.16
2018-11-12T02:17:45.306Z,7.16
2018-11-12T02:18:45.249Z,7.16
2018-11-12T02:19:45.186Z,7.16
2018-11-12T02:20:45.123Z,7.16
2018-11-12T02:21:45.058Z,7.15
2018-11-12T02:22:44.978Z,7.04
2018-11-12T02:23:44.908Z,7.04
2018-11-12T02:24:44.844Z,6.93
2018-11-12T02:25:44.781Z,6.97
2018-11-12T02:26:44.717Z,7.00
2018-11-12T02:27:44.678Z,6.93
2018-11-12T02:28:44.581Z,6.83
2018-11-12T02:29:44.513Z,6.85
2018-11-12T02:30:44.479Z,6.89
2018-11-12T02:31:44.389Z,6.83
2018-11-12T02:32:44.322Z,6.88
2018-11-12T02:33:44.258Z,6.83
2018-11-12T02:34:44.192Z,6.75
2018-11-12T02:35:44.131Z,6.83
2018-11-12T02:36:44.073Z,6.82
2018-11-12T02:37:44.013Z,6.85
2018-11-12T02:38:43.935Z,6.74
2018-11-12T02:39:43.912Z,6.82
2018-11-12T02:40:43.799Z,6.78
2018-11-12T02:41:43.734Z,6.78
2018-11-12T02:42:43.669Z,6.79
2018-11-12T02:43:43.619Z,6.82
2018-11-12T02:44:43.540Z,6.81
2018-11-12T02:45:43.502Z,6.82
2018-11-12T02:46:43.410Z,6.83
2018-11-12T02:47:43.363Z,6.78
2018-11-12T02:48:43.279Z,6.79
2018-11-12T02:49:43.237Z,6.81
2018-11-12T02:50:43.148Z,6.74
2018-11-12T02:51:43.088Z,6.88
2018-11-12T02:52:43.020Z,6.82
2018-11-12T02:53:42.954Z,6.83
2018-11-12T02:54:42.904Z,6.88
2018-11-12T02:55:42.836Z,6.91
2018-11-12T02:56:42.754Z,6.96
2018-11-12T02:57:42.694Z,6.99
2018-11-12T02:58:42.636Z,6.93
2018-11-12T02:59:42.558Z,6.92
2018-11-12T03:00:42.498Z,7.00
2018-11-12T03:01:42.428Z,7.06
2018-11-12T03:02:42.375Z,7.04
2018-11-12T03:03:42.314Z,7.03
2018-11-12T03:04:42.233Z,7.15
2018-11-12T03:05:42.165Z,7.19
2018-11-12T03:06:42.107Z,7.16
2018-11-12T03:07:42.126Z,7.18
2018-11-12T03:08:41.972Z,7.19
2018-11-12T03:09:41.909Z,7.15
2018-11-12T03:10:41.861Z,7.15
2018-11-12T03:11:41.794Z,7.19
2018-11-12T03:12:41.733Z,7.22
2018-11-12T03:13:41.645Z,7.16
2018-11-12T03:14:41.581Z,7.15
2018-11-12T03:15:41.516Z,7.18
2018-11-12T03:16:41.450Z,7.15
2018-11-12T03:17:41.384Z,7.15
2018-11-12T03:18:41.321Z,7.22
2018-11-12T03:19:41.255Z,7.21
2018-11-12T03:20:41.189Z,7.26
2018-11-12T03:21:41.146Z,7.18
2018-11-12T03:22:41.056Z,7.21
2018-11-12T03:23:40.994Z,7.13
2018-11-12T03:24:40.934Z,7.00
2018-11-12T03:25:40.863Z,7.04
2018-11-12T03:26:40.802Z,7.08
2018-11-12T03:27:40.770Z,6.97
2018-11-12T03:28:40.670Z,7.00
2018-11-12T03:29:40.615Z,7.00
2018-11-12T03:30:40.537Z,6.97
2018-11-12T03:31:40.471Z,7.00
2018-11-12T03:32:40.413Z,6.96
2018-11-12T03:33:40.342Z,7.01
2018-11-12T03:34:40.277Z,6.97
2018-11-12T03:35:40.209Z,7.00
2018-11-12T03:36:40.154Z,6.88
2018-11-12T03:37:40.080Z,6.97
2018-11-12T03:38:40.016Z,7.00
2018-11-12T03:39:40.025Z,7.00
2018-11-12T03:40:39.891Z,6.96
2018-11-12T03:41:39.821Z,6.93
2018-11-12T03:42:39.754Z,6.97
2018-11-12T03:43:39.686Z,7.00
2018-11-12T03:44:39.628Z,7.00
2018-11-12T03:45:39.579Z,6.92
2018-11-12T03:46:39.499Z,6.93
2018-11-12T03:47:39.427Z,6.99
2018-11-12T03:48:39.380Z,6.99
2018-11-12T03:49:39.296Z,6.97
2018-11-12T03:50:39.231Z,6.92
2018-11-12T03:51:39.174Z,7.00
2018-11-12T03:52:39.113Z,6.96
2018-11-12T03:53:39.041Z,6.97
2018-11-12T03:54:38.976Z,6.93
2018-11-12T03:55:38.903Z,6.85
2018-11-12T03:56:38.863Z,6.83
2018-11-12T03:57:38.776Z,6.88
2018-11-12T03:58:38.708Z,6.86
2018-11-12T03:59:38.653Z,6.88
2018-11-12T04:00:38.580Z,6.85
2018-11-12T04:01:38.517Z,6.83
2018-11-12T04:02:38.453Z,6.86
2018-11-12T04:03:38.378Z,6.85
2018-11-12T04:04:38.317Z,6.83
2018-11-12T04:05:38.270Z,6.79
2018-11-12T04:06:38.190Z,6.82
2018-11-12T04:07:38.120Z,6.81
2018-11-12T04:08:38.057Z,6.78
2018-11-12T04:09:37.991Z,6.82
2018-11-12T04:10:37.931Z,6.74
2018-11-12T04:11:37.856Z,6.73
2018-11-12T04:12:37.795Z,6.73
2018-11-12T04:13:37.726Z,6.67
2018-11-12T04:14:37.662Z,6.73
2018-11-12T04:15:37.601Z,6.74
2018-11-12T04:16:37.532Z,6.79
2018-11-12T04:17:37.476Z,6.75
2018-11-12T04:18:37.407Z,6.63
2018-11-12T04:19:37.356Z,6.63
2018-11-12T04:20:37.268Z,6.73
2018-11-12T04:21:37.203Z,6.68
2018-11-12T04:22:37.141Z,6.56
2018-11-12T04:23:37.075Z,6.67
2018-11-12T04:24:37.012Z,6.65
2018-11-12T04:25:36.943Z,6.70
2018-11-12T04:26:36.891Z,6.71
2018-11-12T04:27:36.812Z,6.64
2018-11-12T04:28:36.748Z,6.68
2018-11-12T04:29:36.680Z,6.73
2018-11-12T04:30:36.614Z,6.73
2018-11-12T04:31:36.550Z,6.75
2018-11-12T04:32:36.485Z,6.78
2018-11-12T04:33:36.422Z,6.78
2018-11-12T04:34:36.356Z,6.74
2018-11-12T04:35:36.303Z,6.79
2018-11-12T04:36:36.240Z,6.71
2018-11-12T04:37:36.168Z,6.67
2018-11-12T04:38:36.092Z,6.60
2018-11-12T04:39:36.031Z,6.64
2018-11-12T04:40:35.966Z,6.61
2018-11-12T04:41:35.897Z,6.53
2018-11-12T04:42:35.831Z,6.43
2018-11-12T04:43:35.780Z,6.45
2018-11-12T04:44:35.718Z,6.40
2018-11-12T04:45:35.668Z,6.42
2018-11-12T04:46:35.589Z,6.32
2018-11-12T04:47:35.505Z,6.32
2018-11-12T04:48:35.480Z,6.37
2018-11-12T04:49:35.372Z,6.32
2018-11-12T04:50:35.310Z,6.34
2018-11-12T04:51:35.241Z,6.34
2018-11-12T04:52:35.180Z,6.37
2018-11-12T04:53:35.138Z,6.38
2018-11-12T04:54:35.043Z,6.30
2018-11-12T04:55:34.979Z,6.28
2018-11-12T04:56:34.914Z,6.28
2018-11-12T04:57:34.857Z,6.25
2018-11-12T04:58:34.784Z,6.24
2018-11-12T04:59:34.719Z,6.19
2018-11-12T05:00:34.663Z,6.13
2018-11-12T05:01:34.590Z,6.16
2018-11-12T05:02:34.521Z,6.13
2018-11-12T05:03:34.474Z,6.18
2018-11-12T05:04:34.388Z,6.12
2018-11-12T05:05:34.325Z,6.12
2018-11-12T05:06:34.260Z,6.19
2018-11-12T05:07:34.262Z,6.18
2018-11-12T05:08:34.125Z,6.15
2018-11-12T05:09:34.057Z,6.15
2018-11-12T05:10:33.994Z,6.19
2018-11-12T05:11:33.929Z,6.15
2018-11-12T05:12:33.864Z,6.15
2018-11-12T05:13:33.800Z,6.15
2018-11-12T05:14:33.731Z,6.15
2018-11-12T05:15:33.679Z,6.08
2018-11-12T05:16:33.679Z,6.09
2018-11-12T05:17:33.545Z,6.11
2018-11-12T05:18:33.467Z,6.11
2018-11-12T05:19:33.403Z,6.02
2018-11-12T05:20:33.389Z,6.06
2018-11-12T05:21:33.275Z,5.94
2018-11-12T05:22:33.212Z,6.03
2018-11-12T05:23:33.155Z,6.03
2018-11-12T05:24:33.090Z,5.97
2018-11-12T05:25:33.013Z,5.93
2018-11-12T05:26:32.944Z,5.94
2018-11-12T05:27:32.877Z,6.06
2018-11-12T05:28:32.813Z,6.06
2018-11-12T05:29:32.746Z,6.13
2018-11-12T05:30:32.684Z,6.12
2018-11-12T05:31:32.672Z,6.12
2018-11-12T05:32:32.553Z,6.15
2018-11-12T05:33:32.489Z,6.21
2018-11-12T05:34:32.418Z,6.31
2018-11-12T05:35:32.356Z,6.28
2018-11-12T05:36:32.281Z,6.35
2018-11-12T05:37:32.265Z,6.28
2018-11-12T05:38:32.178Z,6.37
2018-11-12T05:39:32.105Z,6.35
2018-11-12T05:40:32.024Z,6.28
2018-11-12T05:41:31.960Z,6.37
2018-11-12T05:42:31.889Z,6.46
2018-11-12T05:43:31.825Z,6.32
2018-11-12T05:44:31.761Z,6.46
2018-11-12T05:45:31.707Z,6.43
2018-11-12T05:46:31.632Z,6.31
2018-11-12T05:47:31.634Z,6.34
2018-11-12T05:48:31.527Z,6.32
2018-11-12T05:49:31.434Z,6.37
2018-11-12T05:50:31.365Z,6.31
2018-11-12T05:51:31.348Z,6.32
2018-11-12T05:52:31.250Z,6.31
2018-11-12T05:53:31.169Z,6.31
2018-11-12T05:54:31.101Z,6.25
2018-11-12T05:55:31.036Z,6.24
2018-11-12T05:56:30.968Z,6.15
2018-11-12T05:57:30.905Z,6.11
2018-11-12T05:58:30.841Z,6.13
2018-11-12T05:59:30.791Z,6.15
2018-11-12T06:00:30.731Z,6.18
2018-11-12T06:01:30.643Z,6.13
2018-11-12T06:02:30.596Z,6.18
2018-11-12T06:03:30.521Z,6.18
2018-11-12T06:04:30.445Z,6.12
2018-11-12T06:05:30.379Z,6.12
2018-11-12T06:06:30.313Z,6.08
2018-11-12T06:07:30.249Z,6.05
2018-11-12T06:08:30.191Z,5.95
2018-11-12T06:09:30.123Z,5.90
2018-11-12T06:10:30.057Z,5.91
2018-11-12T06:11:29.985Z,5.85
2018-11-12T06:12:29.918Z,5.88
2018-11-12T06:13:29.854Z,5.85
2018-11-12T06:14:29.793Z,5.84
2018-11-12T06:15:29.757Z,5.75
2018-11-12T06:16:29.658Z,5.79
2018-11-12T06:17:29.590Z,5.79
2018-11-12T06:18:29.523Z,5.73
2018-11-12T06:19:29.477Z,5.72
2018-11-12T06:20:29.392Z,5.79
2018-11-12T06:21:29.327Z,5.77
2018-11-12T06:22:29.282Z,5.84
2018-11-12T06:23:29.196Z,5.77
2018-11-12T06:24:29.149Z,5.84
2018-11-12T06:25:29.064Z,5.87
2018-11-12T06:26:28.997Z,5.95
2018-11-12T06:27:28.931Z,5.95
2018-11-12T06:28:28.871Z,5.93
2018-11-12T06:29:28.801Z,5.82
2018-11-12T06:30:28.772Z,5.77
2018-11-12T06:31:28.671Z,5.77
2018-11-12T06:32:28.602Z,5.72
2018-11-12T06:33:28.533Z,5.75
2018-11-12T06:34:28.469Z,5.80
2018-11-12T06:35:28.408Z,5.80
2018-11-12T06:36:28.340Z,5.82
2018-11-12T06:37:28.283Z,5.82
2018-11-12T06:38:28.202Z,5.93
2018-11-12T06:39:28.136Z,5.91
2018-11-12T06:40:28.089Z,5.91
2018-11-12T06:41:28.005Z,5.85
2018-11-12T06:42:27.960Z,5.82
2018-11-12T06:43:27.878Z,5.91
2018-11-12T06:44:27.810Z,5.87
2018-11-12T06:45:27.755Z,5.84
2018-11-12T06:46:27.719Z,5.80
2018-11-12T06:47:27.631Z,5.82
2018-11-12T06:48:27.545Z,5.85
2018-11-12T06:49:27.487Z,5.82
2018-11-12T06:50:27.425Z,5.82
2018-11-12T06:51:27.350Z,5.80
2018-11-12T06:52:27.288Z,5.90
2018-11-12T06:53:27.286Z,5.93
2018-11-12T06:54:27.171Z,5.95
2018-11-12T06:55:27.101Z,5.97
2018-11-12T06:56:27.021Z,5.93
2018-11-12T06:57:26.968Z,5.97
2018-11-12T06:58:26.888Z,5.91
2018-11-12T06:59:26.823Z,5.94
2018-11-12T07:00:26.760Z,5.95
2018-11-12T07:01:26.706Z,5.90
2018-11-12T07:02:26.635Z,6.06
2018-11-12T07:03:26.585Z,6.08
2018-11-12T07:04:26.510Z,6.13
2018-11-12T07:05:26.429Z,6.15
2018-11-12T07:06:26.426Z,6.21
2018-11-12T07:07:26.297Z,6.18
2018-11-12T07:08:26.242Z,6.31
2018-11-12T07:09:26.172Z,6.35
2018-11-12T07:10:26.118Z,6.31
2018-11-12T07:11:26.034Z,6.31
2018-11-12T07:12:25.968Z,6.32
2018-11-12T07:13:25.967Z,6.30
2018-11-12T07:14:25.837Z,6.28
2018-11-12T07:15:25.769Z,6.31
2018-11-12T07:16:25.709Z,6.31
2018-11-12T07:17:25.649Z,6.34
2018-11-12T07:18:25.573Z,6.40
2018-11-12T07:19:25.551Z,6.47
2018-11-12T07:20:25.440Z,6.52
2018-11-12T07:21:25.375Z,6.60
2018-11-12T07:22:25.310Z,6.60
2018-11-12T07:23:25.245Z,6.70
2018-11-12T07:24:25.177Z,6.68
2018-11-12T07:25:25.193Z,6.68
2018-11-12T07:26:25.104Z,6.70
2018-11-12T07:27:24.980Z,6.79
2018-11-12T07:28:24.915Z,6.75
2018-11-12T07:29:24.854Z,6.83
2018-11-12T07:30:24.785Z,6.83
2018-11-12T07:31:24.825Z,6.88
2018-11-12T07:32:24.664Z,6.86
2018-11-12T07:33:24.587Z,6.83
2018-11-12T07:34:24.520Z,6.88
2018-11-12T07:35:24.455Z,6.92
2018-11-12T07:36:24.391Z,6.97
2018-11-12T07:37:24.324Z,6.97
2018-11-12T07:38:24.258Z,6.92
2018-11-12T07:39:24.193Z,7.03
2018-11-12T07:40:24.127Z,7.03
2018-11-12T07:41:24.066Z,7.07
2018-11-12T07:42:23.995Z,7.11
2018-11-12T07:43:23.929Z,7.16
2018-11-12T07:44:23.869Z,7.24
2018-11-12T07:45:23.834Z,7.15
2018-11-12T07:46:23.736Z,7.24
2018-11-12T07:47:23.668Z,7.22
2018-11-12T07:48:23.602Z,7.29
2018-11-12T07:49:23.546Z,7.25
2018-11-12T07:50:23.477Z,7.43
2018-11-12T07:51:23.469Z,7.40
2018-11-12T07:52:23.343Z,7.50
2018-11-12T07:53:23.276Z,7.54
2018-11-12T07:54:23.244Z,7.60
2018-11-12T07:55:23.149Z,7.61
2018-11-12T07:56:23.189Z,7.73
2018-11-12T07:57:23.015Z,7.68
2018-11-12T07:58:22.951Z,7.76
2018-11-12T07:59:22.897Z,7.76
2018-11-12T08:00:22.817Z,7.84
2018-11-12T08:01:22.765Z,7.91
2018-11-12T08:02:22.688Z,7.84
2018-11-12T08:03:22.648Z,7.84
2018-11-12T08:04:22.562Z,7.87
2018-11-12T08:05:22.492Z,7.98
2018-11-12T08:06:22.431Z,7.95
2018-11-12T08:07:22.359Z,8.05
2018-11-12T08:08:22.302Z,7.95
2018-11-12T08:09:22.256Z,8.06
2018-11-12T08:10:22.165Z,8.13
2018-11-12T08:11:22.101Z,8.13
2018-11-12T08:12:22.038Z,8.20
2018-11-12T08:13:21.975Z,8.24
2018-11-12T08:14:21.940Z,8.26
2018-11-12T08:15:21.865Z,8.34
2018-11-12T08:16:21.780Z,8.34
2018-11-12T08:17:21.725Z,8.42
2018-11-12T08:18:21.653Z,8.52
2018-11-12T08:19:21.581Z,8.52
2018-11-12T08:20:21.518Z,8.57
2018-11-12T08:21:21.454Z,8.60
2018-11-12T08:22:21.388Z,8.57
2018-11-12T08:23:21.325Z,8.62
2018-11-12T08:24:21.454Z,8.74
2018-11-12T08:25:21.189Z,8.77
2018-11-12T08:26:21.132Z,8.75
2018-11-12T08:27:21.106Z,8.77
2018-11-12T08:28:21.053Z,8.88
2018-11-12T08:29:20.932Z,8.80
2018-11-12T08:30:20.876Z,8.90
2018-11-12T08:31:20.807Z,8.88
2018-11-12T08:32:20.733Z,8.93
2018-11-12T08:33:20.679Z,8.98
2018-11-12T08:34:20.613Z,8.96
2018-11-12T08:35:20.547Z,9.01
2018-11-12T08:36:20.503Z,9.06
2018-11-12T08:37:20.417Z,9.12
2018-11-12T08:38:20.349Z,9.11
2018-11-12T08:39:20.360Z,9.12
2018-11-12T08:40:20.298Z,9.16
2018-11-12T08:41:20.158Z,9.16
2018-11-12T08:42:20.091Z,9.19
2018-11-12T08:43:20.026Z,9.19
2018-11-12T08:44:19.961Z,9.24
2018-11-12T08:45:19.897Z,9.27
2018-11-12T08:46:19.840Z,9.32
2018-11-12T08:47:19.768Z,9.34
2018-11-12T08:48:19.727Z,9.40
2018-11-12T08:49:19.661Z,9.40
2018-11-12T08:50:19.597Z,9.45
2018-11-12T08:51:19.510Z,9.30
2018-11-12T08:52:19.532Z,9.36
2018-11-12T08:53:19.385Z,9.34
2018-11-12T08:54:19.464Z,9.42
2018-11-12T08:55:19.265Z,9.34
2018-11-12T08:56:19.198Z,9.42
2018-11-12T08:57:19.120Z,9.48
2018-11-12T08:58:19.736Z,9.36
2018-11-12T08:59:19.143Z,9.37
2018-11-12T09:00:18.930Z,9.48
2018-11-12T09:01:18.865Z,9.47
2018-11-12T09:02:18.808Z,9.36
2018-11-12T09:03:18.738Z,9.48
2018-11-12T09:04:18.670Z,9.42
2018-11-12T09:05:18.608Z,9.48
2018-11-12T09:06:18.544Z,9.44
2018-11-12T09:07:18.735Z,9.52
2018-11-12T09:08:18.413Z,9.63
2018-11-12T09:09:18.401Z,9.62
2018-11-12T09:10:18.410Z,9.52
2018-11-12T09:11:18.215Z,9.59
2018-11-12T09:12:18.159Z,9.60
2018-11-12T09:13:18.092Z,9.72
2018-11-12T09:14:18.028Z,9.63
2018-11-12T09:15:17.963Z,9.72
2018-11-12T09:16:17.909Z,9.78
2018-11-12T09:17:17.845Z,9.77
2018-11-12T09:18:17.771Z,9.91
2018-11-12T09:19:17.713Z,9.88
2018-11-12T09:20:17.638Z,9.96
2018-11-12T09:21:17.577Z,9.99
2018-11-12T09:22:17.511Z,9.87
2018-11-12T09:23:17.449Z,9.99
2018-11-12T09:24:17.460Z,10.03
2018-11-12T09:25:17.320Z,9.98
2018-11-12T09:26:17.265Z,10.01
2018-11-12T09:27:17.190Z,10.06
2018-11-12T09:28:17.133Z,10.10
2018-11-12T09:29:17.105Z,10.08
2018-11-12T09:30:16.999Z,10.08
2018-11-12T09:31:18.405Z,10.05
2018-11-12T09:32:16.872Z,10.12
2018-11-12T09:33:16.806Z,10.08
2018-11-12T09:34:16.742Z,10.14
2018-11-12T09:35:16.681Z,10.16
2018-11-12T09:36:16.613Z,10.14
2018-11-12T09:37:16.607Z,10.20
2018-11-12T09:38:16.577Z,10.06
2018-11-12T09:39:16.427Z,10.20
2018-11-12T09:40:16.356Z,10.21
2018-11-12T09:41:16.313Z,10.34
2018-11-12T09:42:16.237Z,10.30
2018-11-12T09:43:16.221Z,10.28
2018-11-12T09:44:16.113Z,10.38
2018-11-12T09:45:16.036Z,10.41
2018-11-12T09:46:15.971Z,10.41
2018-11-12T09:47:15.906Z,10.43
2018-11-12T09:48:15.853Z,10.43
2018-11-12T09:49:16.044Z,10.46
2018-11-12T09:50:15.714Z,10.43
2018-11-12T09:51:15.661Z,10.42
2018-11-12T09:52:15.589Z,10.42
2018-11-12T09:53:15.518Z,10.41
2018-11-12T09:54:15.537Z,10.41
2018-11-12T09:55:15.399Z,10.49
2018-11-12T09:56:15.331Z,10.49
2018-11-12T09:57:15.276Z,10.55
2018-11-12T09:58:15.218Z,10.54
2018-11-12T09:59:15.185Z,10.54
2018-11-12T10:00:15.199Z,10.55
2018-11-12T10:01:15.196Z,10.64
2018-11-12T10:02:15.416Z,10.55
2018-11-12T10:03:16.020Z,10.68
2018-11-12T10:04:15.536Z,10.58
2018-11-12T10:05:15.704Z,10.68
2018-11-12T10:06:15.762Z,10.62
2018-11-12T10:07:15.929Z,10.72
2018-11-12T10:08:16.323Z,10.72
2018-11-12T10:09:16.023Z,10.73
2018-11-12T10:10:16.968Z,10.76
2018-11-12T10:11:17.767Z,10.82
2018-11-12T10:12:16.587Z,10.78
2018-11-12T10:13:16.092Z,10.78
2018-11-12T10:14:16.192Z,10.75
2018-11-12T10:15:16.757Z,10.76
2018-11-12T10:16:16.766Z,10.79
2018-11-12T10:17:16.761Z,10.82
2018-11-12T10:18:13.929Z,10.86
2018-11-12T10:19:13.855Z,10.94
2018-11-12T10:20:13.841Z,11.05
2018-11-12T10:21:13.743Z,11.04
2018-11-12T10:22:13.668Z,11.19
2018-11-12T10:23:13.629Z,11.20
2018-11-12T10:24:13.541Z,11.18
2018-11-12T10:25:13.486Z,11.28
2018-11-12T10:26:13.412Z,11.28
2018-11-12T10:27:13.353Z,11.38
2018-11-12T10:28:13.292Z,11.34
2018-11-12T10:29:13.226Z,11.34
2018-11-12T10:30:13.158Z,11.38
2018-11-12T10:31:13.103Z,11.40
2018-11-12T10:32:13.031Z,11.41
2018-11-12T10:33:13.000Z,11.49
2018-11-12T10:34:12.932Z,11.49
2018-11-12T10:35:12.836Z,11.43
2018-11-12T10:36:12.776Z,11.52
2018-11-12T10:37:12.713Z,11.58
2018-11-12T10:38:12.648Z,11.55
2018-11-12T10:39:12.583Z,11.61
2018-11-12T10:40:12.523Z,11.62
2018-11-12T10:41:12.521Z,11.71
2018-11-12T10:42:12.434Z,11.74
2018-11-12T10:43:12.332Z,11.76
2018-11-12T10:44:12.269Z,11.89
2018-11-12T10:45:12.206Z,11.93
2018-11-12T10:46:12.138Z,12.00
2018-11-12T10:47:12.074Z,11.99
2018-11-12T10:48:12.054Z,11.97
2018-11-12T10:49:11.951Z,12.17
2018-11-12T10:50:11.895Z,12.11
2018-11-12T10:51:11.868Z,12.25
2018-11-12T10:52:11.757Z,12.22
2018-11-12T10:53:11.695Z,12.17
2018-11-12T10:54:11.662Z,12.25
2018-11-12T10:55:11.754Z,12.23
2018-11-12T10:56:11.565Z,12.33
2018-11-12T10:57:11.446Z,12.38
2018-11-12T10:58:11.375Z,12.48
2018-11-12T10:59:11.313Z,12.44
2018-11-12T11:00:11.262Z,12.38
2018-11-12T11:01:11.186Z,12.47
2018-11-12T11:02:11.120Z,12.46
2018-11-12T11:03:11.062Z,12.35
2018-11-12T11:04:10.994Z,12.44
2018-11-12T11:05:10.933Z,12.40
2018-11-12T11:06:11.707Z,12.41
2018-11-12T11:07:10.804Z,12.66
2018-11-12T11:08:10.768Z,12.73
2018-11-12T11:09:10.679Z,12.88
2018-11-12T11:10:10.615Z,12.87
2018-11-12T11:11:10.551Z,12.88
2018-11-12T11:12:10.490Z,12.95
2018-11-12T11:13:10.431Z,12.91
2018-11-12T11:14:10.368Z,12.91
2018-11-12T11:15:10.299Z,12.91
2018-11-12T11:16:10.235Z,12.96
2018-11-12T11:17:10.174Z,12.99
2018-11-12T11:18:10.108Z,13.02
2018-11-12T11:19:10.046Z,13.04
2018-11-12T11:20:09.985Z,13.08
2018-11-12T11:21:09.948Z,13.11
2018-11-12T11:22:09.855Z,13.20
2018-11-12T11:23:09.806Z,13.19
2018-11-12T11:24:09.729Z,13.08
2018-11-12T11:25:09.668Z,13.11
2018-11-12T11:26:09.603Z,13.16
2018-11-12T11:27:09.541Z,13.08
2018-11-12T11:28:09.490Z,13.14
2018-11-12T11:29:09.419Z,13.16
2018-11-12T11:30:09.351Z,13.17
2018-11-12T11:31:10.016Z,13.14
2018-11-12T11:32:09.228Z,13.19
2018-11-12T11:33:09.163Z,13.14
2018-11-12T11:34:09.101Z,13.08
2018-11-12T11:35:09.036Z,13.16
2018-11-12T11:36:08.993Z,13.11
2018-11-12T11:37:08.908Z,13.21
2018-11-12T11:38:08.848Z,13.21
2018-11-12T11:39:08.784Z,13.29
2018-11-12T11:40:08.748Z,13.35
2018-11-12T11:41:08.665Z,13.39
2018-11-12T11:42:08.604Z,13.23
2018-11-12T11:43:08.532Z,13.24
2018-11-12T11:44:08.471Z,13.24
2018-11-12T11:45:08.408Z,13.29
2018-11-12T11:46:08.385Z,13.24
2018-11-12T11:47:08.320Z,13.26
2018-11-12T11:48:08.308Z,13.23
2018-11-12T11:49:08.156Z,13.35
2018-11-12T11:50:08.173Z,13.40
2018-11-12T11:51:08.030Z,13.38
2018-11-12T11:52:07.973Z,13.39
2018-11-12T11:53:07.900Z,13.43
2018-11-12T11:54:07.840Z,13.47
2018-11-12T11:55:07.792Z,13.54
2018-11-12T11:56:07.716Z,13.47
2018-11-12T11:57:07.702Z,13.51
2018-11-12T11:58:07.592Z,13.55
2018-11-12T11:59:07.529Z,13.63
2018-11-12T12:00:07.464Z,13.73
2018-11-12T12:01:07.404Z,13.75
2018-11-12T12:02:07.362Z,13.82
2018-11-12T12:03:07.378Z,13.82
2018-11-12T12:04:07.220Z,13.82
2018-11-12T12:05:07.154Z,13.90
2018-11-12T12:06:07.104Z,13.88
2018-11-12T12:07:07.033Z,13.93
2018-11-12T12:08:06.966Z,13.80
2018-11-12T12:09:06.984Z,13.78
2018-11-12T12:10:06.835Z,13.76
2018-11-12T12:11:06.776Z,13.75
2018-11-12T12:12:06.713Z,13.76
2018-11-12T12:13:06.654Z,13.82
2018-11-12T12:14:06.591Z,13.79
2018-11-12T12:15:06.521Z,13.82
2018-11-12T12:16:06.463Z,13.78
2018-11-12T12:17:06.399Z,13.76
2018-11-12T12:18:06.335Z,13.73
2018-11-12T12:19:06.303Z,13.71
2018-11-12T12:20:06.214Z,13.71
2018-11-12T12:21:06.154Z,13.65
2018-11-12T12:22:06.088Z,13.64
2018-11-12T12:23:06.035Z,13.67
2018-11-12T12:24:05.960Z,13.68
2018-11-12T12:25:05.980Z,13.68
2018-11-12T12:26:05.838Z,13.67
2018-11-12T12:27:05.772Z,13.65
2018-11-12T12:28:05.713Z,13.49
2018-11-12T12:29:05.650Z,13.38
2018-11-12T12:30:05.585Z,13.29
2018-11-12T12:31:05.527Z,13.21
2018-11-12T12:32:05.468Z,13.17
2018-11-12T12:33:05.401Z,13.14
2018-11-12T12:34:05.351Z,13.20
2018-11-12T12:35:05.273Z,13.14
2018-11-12T12:36:05.281Z,13.09
2018-11-12T12:37:05.157Z,12.96
2018-11-12T12:38:05.083Z,13.04
2018-11-12T12:39:05.023Z,12.90
2018-11-12T12:40:04.967Z,12.95
2018-11-12T12:41:04.895Z,12.99
2018-11-12T12:42:04.834Z,12.88
2018-11-12T12:43:04.779Z,12.90
2018-11-12T12:44:04.716Z,12.93
2018-11-12T12:45:04.835Z,12.90
2018-11-12T12:46:04.645Z,12.80
2018-11-12T12:47:04.551Z,12.84
2018-11-12T12:48:04.461Z,12.81
2018-11-12T12:49:04.398Z,12.91
2018-11-12T12:50:04.333Z,12.88
2018-11-12T12:51:04.269Z,12.76
2018-11-12T12:52:04.207Z,12.79
2018-11-12T12:53:04.145Z,12.80
2018-11-12T12:54:04.083Z,12.84
2018-11-12T12:55:04.021Z,12.87
2018-11-12T12:56:04.006Z,12.81
2018-11-12T12:57:03.898Z,12.87
2018-11-12T12:58:03.892Z,12.95
2018-11-12T12:59:03.772Z,12.91
2018-11-12T13:00:03.778Z,12.93
2018-11-12T13:01:03.653Z,12.87
2018-11-12T13:02:03.595Z,12.86
2018-11-12T13:03:03.516Z,12.95
2018-11-12T13:04:03.472Z,12.93
2018-11-12T13:05:03.438Z,13.05
2018-11-12T13:06:03.356Z,13.02
2018-11-12T13:07:03.281Z,13.01
2018-11-12T13:08:03.218Z,13.04
2018-11-12T13:09:03.137Z,12.98
2018-11-12T13:10:03.086Z,13.11